Home > Products > Valid Products > TAF

000
FTUS43 KDDC 270522
TAFHYS
TAF
KHYS 270522Z 2706/2806 08007KT P6SM SCT200
      TEMPO 2710/2713 3SM BR
     FM271700 14015G25KT P6SM SCT050=



000
FTUS43 KDDC 270522
TAFGCK
TAF
KGCK 270522Z 2706/2806 13007KT P6SM SCT200
      TEMPO 2710/2713 3SM BR
     FM271700 15015G25KT P6SM SCT050=



000
FTUS43 KDDC 270522
TAFGCK
TAF
KGCK 270522Z 2706/2806 13007KT P6SM SCT200
      TEMPO 2710/2713 3SM BR
     FM271700 15015G25KT P6SM SCT050=



000
FTUS43 KDDC 270522
TAFHYS
TAF
KHYS 270522Z 2706/2806 08007KT P6SM SCT200
      TEMPO 2710/2713 3SM BR
     FM271700 14015G25KT P6SM SCT050=



000
FTUS43 KDDC 270522
TAFDDC
TAF
KDDC 270522Z 2706/2806 13007KT P6SM SCT200
      TEMPO 2710/2713 3SM BR BKN003
     FM271700 14016G23KT P6SM SCT050=



000
FTUS43 KDDC 270522
TAFDDC
TAF
KDDC 270522Z 2706/2806 13007KT P6SM SCT200
      TEMPO 2710/2713 3SM BR BKN003
     FM271700 14016G23KT P6SM SCT050=



000
FTUS43 KDDC 262329
TAFHYS
TAF
KHYS 262329Z 2700/2724 30004KT P6SM SKC
     FM271700 14016G23KT P6SM SCT020=



000
FTUS43 KDDC 262329
TAFDDC
TAF
KDDC 262329Z 2700/2724 30004KT P6SM SKC
     FM271000 13008KT 3SM BR SCT005
     FM271700 14016G23KT P6SM SCT020=



000
FTUS43 KDDC 262329
TAFGCK
TAF
KGCK 262329Z 2700/2724 30004KT P6SM SKC
     FM271000 13008KT 3SM BR SCT005
     FM271700 15012KT P6SM SCT020=



000
FTUS43 KDDC 262329
TAFDDC
TAF
KDDC 262329Z 2700/2724 30004KT P6SM SKC
     FM271000 13008KT 3SM BR SCT005
     FM271700 14016G23KT P6SM SCT020=



000
FTUS43 KDDC 262329
TAFGCK
TAF
KGCK 262329Z 2700/2724 30004KT P6SM SKC
     FM271000 13008KT 3SM BR SCT005
     FM271700 15012KT P6SM SCT020=



000
FTUS43 KDDC 262329
TAFHYS
TAF
KHYS 262329Z 2700/2724 30004KT P6SM SKC
     FM271700 14016G23KT P6SM SCT020=



000
FTUS43 KDDC 262329
TAFGCK
TAF
KGCK 262329Z 2700/2724 30004KT P6SM SKC
     FM271000 13008KT 3SM BR SCT005
     FM271700 15012KT P6SM SCT020=



000
FTUS43 KDDC 262329
TAFDDC
TAF
KDDC 262329Z 2700/2724 30004KT P6SM SKC
     FM271000 13008KT 3SM BR SCT005
     FM271700 14016G23KT P6SM SCT020=



000
FTUS43 KDDC 262329
TAFDDC
TAF
KDDC 262329Z 2700/2724 30004KT P6SM SKC
     FM271000 13008KT 3SM BR SCT005
     FM271700 14016G23KT P6SM SCT020=



000
FTUS43 KDDC 262329
TAFHYS
TAF
KHYS 262329Z 2700/2724 30004KT P6SM SKC
     FM271700 14016G23KT P6SM SCT020=



000
FTUS43 KDDC 262329
TAFGCK
TAF
KGCK 262329Z 2700/2724 30004KT P6SM SKC
     FM271000 13008KT 3SM BR SCT005
     FM271700 15012KT P6SM SCT020=



000
FTUS43 KDDC 262329
TAFHYS
TAF
KHYS 262329Z 2700/2724 30004KT P6SM SKC
     FM271700 14016G23KT P6SM SCT020=



000
FTUS43 KDDC 261720
TAFHYS
TAF
KHYS 261720Z 2618/2718 29011KT P6SM FEW028
     FM271200 10007KT P6SM BKN250=



000
FTUS43 KDDC 261720
TAFDDC
TAF
KDDC 261720Z 2618/2718 30004KT P6SM SKC
     FM271500 10010KT P6SM SCT250=



000
FTUS43 KDDC 261720
TAFGCK
TAF
KGCK 261720Z 2618/2718 35007KT P6SM SKC
     FM271200 12008KT P6SM BKN250=



000
FTUS43 KDDC 261720
TAFHYS
TAF
KHYS 261720Z 2618/2718 29011KT P6SM FEW028
     FM271200 10007KT P6SM BKN250=



000
FTUS43 KDDC 261720
TAFGCK
TAF
KGCK 261720Z 2618/2718 35007KT P6SM SKC
     FM271200 12008KT P6SM BKN250=



000
FTUS43 KDDC 261720
TAFDDC
TAF
KDDC 261720Z 2618/2718 30004KT P6SM SKC
     FM271500 10010KT P6SM SCT250=



000
FTUS43 KDDC 261720
TAFHYS
TAF
KHYS 261720Z 2618/2718 29011KT P6SM FEW028
     FM271200 10007KT P6SM BKN250=



000
FTUS43 KDDC 261720
TAFDDC
TAF
KDDC 261720Z 2618/2718 30004KT P6SM SKC
     FM271500 10010KT P6SM SCT250=



000
FTUS43 KDDC 261720
TAFHYS
TAF
KHYS 261720Z 2618/2718 29011KT P6SM FEW028
     FM271200 10007KT P6SM BKN250=



000
FTUS43 KDDC 261720
TAFGCK
TAF
KGCK 261720Z 2618/2718 35007KT P6SM SKC
     FM271200 12008KT P6SM BKN250=



000
FTUS43 KDDC 261720
TAFGCK
TAF
KGCK 261720Z 2618/2718 35007KT P6SM SKC
     FM271200 12008KT P6SM BKN250=



000
FTUS43 KDDC 261720
TAFDDC
TAF
KDDC 261720Z 2618/2718 30004KT P6SM SKC
     FM271500 10010KT P6SM SCT250=



000
FTUS43 KDDC 261128
TAFGCK
TAF
KGCK 261128Z 2612/2712 27008KT P6SM SCT080=



000
FTUS43 KDDC 261128
TAFDDC
TAF
KDDC 261128Z 2612/2712 27008KT P6SM SCT080=



000
FTUS43 KDDC 261128
TAFHYS
TAF
KHYS 261128Z 2612/2712 33008KT P6SM SCT080=



000
FTUS43 KDDC 261128
TAFDDC
TAF
KDDC 261128Z 2612/2712 27008KT P6SM SCT080=



000
FTUS43 KDDC 261128
TAFHYS
TAF
KHYS 261128Z 2612/2712 33008KT P6SM SCT080=



000
FTUS43 KDDC 261128
TAFGCK
TAF
KGCK 261128Z 2612/2712 27008KT P6SM SCT080=



000
FTUS43 KDDC 260708 AAB
TAFHYS
TAF AMD
KHYS 260708Z 2607/2706 VRB06KT P6SM SCT200=



000
FTUS43 KDDC 260708 AAB
TAFHYS
TAF AMD
KHYS 260708Z 2607/2706 VRB06KT P6SM SCT200=



000
FTUS43 KDDC 260635 AAA
TAFHYS
TAF AMD
KHYS 260635Z 2607/2706 VRB06KT P6SM SCT200
      TEMPO 2607/2611 2SM BR=



000
FTUS43 KDDC 260635 AAA
TAFHYS
TAF AMD
KHYS 260635Z 2607/2706 VRB06KT P6SM SCT200
      TEMPO 2607/2611 2SM BR=



000
FTUS43 KDDC 260536
TAFGCK
TAF
KGCK 260536Z 2606/2706 VRB06KT P6SM SCT200=



000
FTUS43 KDDC 260536
TAFHYS
TAF
KHYS 260536Z 2606/2706 VRB06KT P6SM SCT200=



000
FTUS43 KDDC 260536
TAFDDC
TAF
KDDC 260536Z 2606/2706 VRB06KT P6SM SCT200=



000
FTUS43 KDDC 260536
TAFHYS
TAF
KHYS 260536Z 2606/2706 VRB06KT P6SM SCT200=



000
FTUS43 KDDC 260536
TAFGCK
TAF
KGCK 260536Z 2606/2706 VRB06KT P6SM SCT200=



000
FTUS43 KDDC 260536
TAFDDC
TAF
KDDC 260536Z 2606/2706 VRB06KT P6SM SCT200=



000
FTUS43 KDDC 260536
TAFDDC
TAF
KDDC 260536Z 2606/2706 VRB06KT P6SM SCT200=



000
FTUS43 KDDC 260536
TAFGCK
TAF
KGCK 260536Z 2606/2706 VRB06KT P6SM SCT200=



000
FTUS43 KDDC 260536
TAFHYS
TAF
KHYS 260536Z 2606/2706 VRB06KT P6SM SCT200=



000
FTUS43 KDDC 260444 AAC
TAFDDC
TAF AMD
KDDC 260444Z 2605/2624 VRB06KT P6SM SCT200=



000
FTUS43 KDDC 260444 AAC
TAFDDC
TAF AMD
KDDC 260444Z 2605/2624 VRB06KT P6SM SCT200=



000
FTUS43 KDDC 260444 AAC
TAFDDC
TAF AMD
KDDC 260444Z 2605/2624 VRB06KT P6SM SCT200=



000
FTUS43 KDDC 260444 AAC
TAFDDC
TAF AMD
KDDC 260444Z 2605/2624 VRB06KT P6SM SCT200=



000
FTUS43 KDDC 260357 AAB
TAFDDC
TAF AMD
KDDC 260357Z 2604/2624 23008KT P6SM VCTS SCT040CB
      TEMPO 2604/2605 VRB20G30KT 2SM -TSRA BKN030CB
     FM260500 31006KT P6SM SCT200=



000
FTUS43 KDDC 260357 AAB
TAFDDC
TAF AMD
KDDC 260357Z 2604/2624 23008KT P6SM VCTS SCT040CB
      TEMPO 2604/2605 VRB20G30KT 2SM -TSRA BKN030CB
     FM260500 31006KT P6SM SCT200=



000
FTUS43 KDDC 260322 AAA
TAFDDC
TAF AMD
KDDC 260322Z 2603/2624 23008KT P6SM VCTS SCT040CB
      TEMPO 2603/2605 2SM -TSRA BKN030CB
     FM260500 31006KT P6SM SCT200=



000
FTUS43 KDDC 260322 AAA
TAFDDC
TAF AMD
KDDC 260322Z 2603/2624 23008KT P6SM VCTS SCT040CB
      TEMPO 2603/2605 2SM -TSRA BKN030CB
     FM260500 31006KT P6SM SCT200=



000
FTUS43 KDDC 260322 AAA
TAFDDC
TAF AMD
KDDC 260322Z 2603/2624 23008KT P6SM VCTS SCT040CB
      TEMPO 2603/2605 2SM -TSRA BKN030CB
     FM260500 31006KT P6SM SCT200=



000
FTUS43 KDDC 252320
TAFGCK
TAF
KGCK 252320Z 2600/2624 24007KT P6SM BKN200
     FM260400 34007KT P6SM SCT200=



000
FTUS43 KDDC 252320
TAFHYS
TAF
KHYS 252320Z 2600/2624 24008KT P6SM SCT200
     FM260400 32006KT P6SM SCT200=



000
FTUS43 KDDC 252320
TAFDDC
TAF
KDDC 252320Z 2600/2624 23008KT P6SM VCTS SCT050CB
     FM260500 31006KT P6SM SCT200=



000
FTUS43 KDDC 252320
TAFGCK
TAF
KGCK 252320Z 2600/2624 24007KT P6SM BKN200
     FM260400 34007KT P6SM SCT200=



000
FTUS43 KDDC 252320
TAFHYS
TAF
KHYS 252320Z 2600/2624 24008KT P6SM SCT200
     FM260400 32006KT P6SM SCT200=



000
FTUS43 KDDC 252320
TAFDDC
TAF
KDDC 252320Z 2600/2624 23008KT P6SM VCTS SCT050CB
     FM260500 31006KT P6SM SCT200=



000
FTUS43 KDDC 252045 AAA
TAFDDC
TAF AMD
KDDC 252045Z 2521/2618 VRB06KT P6SM VCTS SCT040CB
     FM260800 28006KT P6SM SCT200=



000
FTUS43 KDDC 252045 AAA
TAFDDC
TAF AMD
KDDC 252045Z 2521/2618 VRB06KT P6SM VCTS SCT040CB
     FM260800 28006KT P6SM SCT200=



000
FTUS43 KDDC 251743
TAFDDC
TAF
KDDC 251743Z 2518/2618 VRB06KT P6SM BKN017
     FM252000 19009KT P6SM SCT040 BKN200
     FM252300 19009KT P6SM VCTS BKN040CB
     FM261000 28006KT P6SM SCT200=



000
FTUS43 KDDC 251743
TAFHYS
TAF
KHYS 251743Z 2518/2618 VRB06KT P6SM BKN013
     FM252000 19009KT P6SM SCT025 BKN200
     FM252300 19009KT P6SM VCTS BKN040CB
     FM261000 28006KT P6SM SCT200=



000
FTUS43 KDDC 251743
TAFGCK
TAF
KGCK 251743Z 2518/2618 31006KT P6SM SCT200=



000
FTUS43 KDDC 251743
TAFDDC
TAF
KDDC 251743Z 2518/2618 VRB06KT P6SM BKN017
     FM252000 19009KT P6SM SCT040 BKN200
     FM252300 19009KT P6SM VCTS BKN040CB
     FM261000 28006KT P6SM SCT200=



000
FTUS43 KDDC 251743
TAFHYS
TAF
KHYS 251743Z 2518/2618 VRB06KT P6SM BKN013
     FM252000 19009KT P6SM SCT025 BKN200
     FM252300 19009KT P6SM VCTS BKN040CB
     FM261000 28006KT P6SM SCT200=



000
FTUS43 KDDC 251743
TAFGCK
TAF
KGCK 251743Z 2518/2618 31006KT P6SM SCT200=



000
FTUS43 KDDC 251743
TAFGCK
TAF
KGCK 251743Z 2518/2618 31006KT P6SM SCT200=



000
FTUS43 KDDC 251743
TAFHYS
TAF
KHYS 251743Z 2518/2618 VRB06KT P6SM BKN013
     FM252000 19009KT P6SM SCT025 BKN200
     FM252300 19009KT P6SM VCTS BKN040CB
     FM261000 28006KT P6SM SCT200=



000
FTUS43 KDDC 251743
TAFGCK
TAF
KGCK 251743Z 2518/2618 31006KT P6SM SCT200=



000
FTUS43 KDDC 251743
TAFDDC
TAF
KDDC 251743Z 2518/2618 VRB06KT P6SM BKN017
     FM252000 19009KT P6SM SCT040 BKN200
     FM252300 19009KT P6SM VCTS BKN040CB
     FM261000 28006KT P6SM SCT200=



000
FTUS43 KDDC 251743
TAFDDC
TAF
KDDC 251743Z 2518/2618 VRB06KT P6SM BKN017
     FM252000 19009KT P6SM SCT040 BKN200
     FM252300 19009KT P6SM VCTS BKN040CB
     FM261000 28006KT P6SM SCT200=



000
FTUS43 KDDC 251743
TAFHYS
TAF
KHYS 251743Z 2518/2618 VRB06KT P6SM BKN013
     FM252000 19009KT P6SM SCT025 BKN200
     FM252300 19009KT P6SM VCTS BKN040CB
     FM261000 28006KT P6SM SCT200=



000
FTUS43 KDDC 251652 AAB
TAFGCK
TAF AMD
KGCK 251652Z 2517/2612 18006KT P6SM SCT200=



000
FTUS43 KDDC 251652 AAB
TAFGCK
TAF AMD
KGCK 251652Z 2517/2612 18006KT P6SM SCT200=



000
FTUS43 KDDC 251650 AAD
TAFDDC
TAF AMD
KDDC 251650Z 2517/2612 19008KT P6SM BKN014
     FM251800 19009KT P6SM SCT040 BKN200
     FM252300 19009KT P6SM VCTS BKN040CB=



000
FTUS43 KDDC 251650 AAD
TAFDDC
TAF AMD
KDDC 251650Z 2517/2612 19008KT P6SM BKN014
     FM251800 19009KT P6SM SCT040 BKN200
     FM252300 19009KT P6SM VCTS BKN040CB=



000
FTUS43 KDDC 251432 AAC
TAFDDC
TAF AMD
KDDC 251432Z 2515/2612 19008KT 2SM BR BKN006
      TEMPO 2515/2516 1SM BR BKN003
     FM251600 19009KT P6SM SCT050 BKN100
     FM252300 19009KT P6SM VCTS BKN050CB=



000
FTUS43 KDDC 251432 AAC
TAFDDC
TAF AMD
KDDC 251432Z 2515/2612 19008KT 2SM BR BKN006
      TEMPO 2515/2516 1SM BR BKN003
     FM251600 19009KT P6SM SCT050 BKN100
     FM252300 19009KT P6SM VCTS BKN050CB=



000
FTUS43 KDDC 251432 AAC
TAFDDC
TAF AMD
KDDC 251432Z 2515/2612 19008KT 2SM BR BKN006
      TEMPO 2515/2516 1SM BR BKN003
     FM251600 19009KT P6SM SCT050 BKN100
     FM252300 19009KT P6SM VCTS BKN050CB=



000
FTUS43 KDDC 251304 AAB
TAFDDC
TAF AMD
KDDC 251304Z 2513/2612 14012KT P6SM BKN050
      TEMPO 2513/2515 1/4SM FG BKN006
     FM251500 22011KT P6SM SCT050 BKN100
     FM252300 29007KT P6SM OVC100 PROB30 2523/2603 P6SM TSRA
      BKN050CB=



000
FTUS43 KDDC 251304 AAB
TAFDDC
TAF AMD
KDDC 251304Z 2513/2612 14012KT P6SM BKN050
      TEMPO 2513/2515 1/4SM FG BKN006
     FM251500 22011KT P6SM SCT050 BKN100
     FM252300 29007KT P6SM OVC100 PROB30 2523/2603 P6SM TSRA
      BKN050CB=



000
FTUS43 KDDC 251304 AAB
TAFDDC
TAF AMD
KDDC 251304Z 2513/2612 14012KT P6SM BKN050
      TEMPO 2513/2515 1/4SM FG BKN006
     FM251500 22011KT P6SM SCT050 BKN100
     FM252300 29007KT P6SM OVC100 PROB30 2523/2603 P6SM TSRA
      BKN050CB=



000
FTUS43 KDDC 251304 AAB
TAFDDC
TAF AMD
KDDC 251304Z 2513/2612 14012KT P6SM BKN050
      TEMPO 2513/2515 1/4SM FG BKN006
     FM251500 22011KT P6SM SCT050 BKN100
     FM252300 29007KT P6SM OVC100 PROB30 2523/2603 P6SM TSRA
      BKN050CB=



000
FTUS43 KDDC 251303 AAA
TAFGCK
TAF AMD
KGCK 251303Z 2513/2612 13008KT P6SM OVC006
      TEMPO 2513/2515 1/4SM FG
     FM251500 18008KT P6SM BKN100
     FM252300 29007KT P6SM OVC100 PROB30 2523/2603 P6SM TSRA
      BKN050CB=



000
FTUS43 KDDC 251303 AAA
TAFGCK
TAF AMD
KGCK 251303Z 2513/2612 13008KT P6SM OVC006
      TEMPO 2513/2515 1/4SM FG
     FM251500 18008KT P6SM BKN100
     FM252300 29007KT P6SM OVC100 PROB30 2523/2603 P6SM TSRA
      BKN050CB=



000
FTUS43 KDDC 251303 AAA
TAFGCK
TAF AMD
KGCK 251303Z 2513/2612 13008KT P6SM OVC006
      TEMPO 2513/2515 1/4SM FG
     FM251500 18008KT P6SM BKN100
     FM252300 29007KT P6SM OVC100 PROB30 2523/2603 P6SM TSRA
      BKN050CB=



000
FTUS43 KDDC 251120
TAFGCK
TAF
KGCK 251120Z 2512/2612 13008KT P6SM OVC006
     FM251500 18008KT P6SM BKN100
     FM252300 29007KT P6SM OVC100 PROB30 2523/2603 P6SM TSRA
      BKN050CB=



000
FTUS43 KDDC 251120
TAFHYS
TAF
KHYS 251120Z 2512/2612 15012KT P6SM BKN030
     FM251500 20008KT P6SM BKN200
     FM260100 29008KT P6SM OVC100 PROB30 2601/2605 P6SM TSRA
      BKN050CB=



000
FTUS43 KDDC 251120
TAFDDC
TAF
KDDC 251120Z 2512/2612 14012KT P6SM BKN050
      TEMPO 2512/2515 BKN006
     FM251500 22011KT P6SM SCT050 BKN100
     FM252300 29007KT P6SM OVC100 PROB30 2523/2603 P6SM TSRA
      BKN050CB=



000
FTUS43 KDDC 251120
TAFGCK
TAF
KGCK 251120Z 2512/2612 13008KT P6SM OVC006
     FM251500 18008KT P6SM BKN100
     FM252300 29007KT P6SM OVC100 PROB30 2523/2603 P6SM TSRA
      BKN050CB=



000
FTUS43 KDDC 251120
TAFDDC
TAF
KDDC 251120Z 2512/2612 14012KT P6SM BKN050
      TEMPO 2512/2515 BKN006
     FM251500 22011KT P6SM SCT050 BKN100
     FM252300 29007KT P6SM OVC100 PROB30 2523/2603 P6SM TSRA
      BKN050CB=



000
FTUS43 KDDC 251120
TAFHYS
TAF
KHYS 251120Z 2512/2612 15012KT P6SM BKN030
     FM251500 20008KT P6SM BKN200
     FM260100 29008KT P6SM OVC100 PROB30 2601/2605 P6SM TSRA
      BKN050CB=



000
FTUS43 KDDC 250800 AAB
TAFGCK
TAF AMD
KGCK 250800Z 2508/2606 13008KT P6SM BKN020
     FM251500 18008KT P6SM BKN200=



000
FTUS43 KDDC 250759 AAD
TAFDDC
TAF AMD
KDDC 250759Z 2508/2606 17006KT P6SM BKN050
     FM251500 22011KT P6SM SCT050 BKN100=



000
FTUS43 KDDC 250759 AAD
TAFDDC
TAF AMD
KDDC 250759Z 2508/2606 17006KT P6SM BKN050
     FM251500 22011KT P6SM SCT050 BKN100=



000
FTUS43 KDDC 250717 AAC
TAFDDC
TAF AMD
KDDC 250717Z 2507/2606 22018G31KT 1 1/2SM +TSRA BR BKN035CB OVC060
     FM250800 16013KT 5SM BR OVC025
     FM251500 22011KT P6SM SCT050 BKN100=



000
FTUS43 KDDC 250717 AAC
TAFDDC
TAF AMD
KDDC 250717Z 2507/2606 22018G31KT 1 1/2SM +TSRA BR BKN035CB OVC060
     FM250800 16013KT 5SM BR OVC025
     FM251500 22011KT P6SM SCT050 BKN100=



000
FTUS43 KDDC 250717 AAC
TAFDDC
TAF AMD
KDDC 250717Z 2507/2606 22018G31KT 1 1/2SM +TSRA BR BKN035CB OVC060
     FM250800 16013KT 5SM BR OVC025
     FM251500 22011KT P6SM SCT050 BKN100=



000
FTUS43 KDDC 250613 AAB
TAFHYS
TAF AMD
KHYS 250613Z 2506/2606 15012KT 6SM -TSRA BKN025CB
     FM251100 15010KT 5SM BR OVC025
     FM251500 20008KT P6SM BKN200=



000
FTUS43 KDDC 250613 AAB
TAFHYS
TAF AMD
KHYS 250613Z 2506/2606 15012KT 6SM -TSRA BKN025CB
     FM251100 15010KT 5SM BR OVC025
     FM251500 20008KT P6SM BKN200=



000
FTUS43 KDDC 250613 AAB
TAFHYS
TAF AMD
KHYS 250613Z 2506/2606 15012KT 6SM -TSRA BKN025CB
     FM251100 15010KT 5SM BR OVC025
     FM251500 20008KT P6SM BKN200=



000
FTUS43 KDDC 250612 AAA
TAFHYS
TAF AMD
KHYS 250612Z 2506/2606 27022G31KT P6SM BKN011 BKN024 OVC029
     FM250800 15012KT P6SM VCTS OVC003CB
     FM251100 15010KT 3SM BR OVC015
     FM251500 20008KT P6SM BKN200=



000
FTUS43 KDDC 250612 AAA
TAFHYS
TAF AMD
KHYS 250612Z 2506/2606 27022G31KT P6SM BKN011 BKN024 OVC029
     FM250800 15012KT P6SM VCTS OVC003CB
     FM251100 15010KT 3SM BR OVC015
     FM251500 20008KT P6SM BKN200=



000
FTUS43 KDDC 250612 AAA
TAFHYS
TAF AMD
KHYS 250612Z 2506/2606 27022G31KT P6SM BKN011 BKN024 OVC029
     FM250800 15012KT P6SM VCTS OVC003CB
     FM251100 15010KT 3SM BR OVC015
     FM251500 20008KT P6SM BKN200=



000
FTUS43 KDDC 250612 AAA
TAFHYS
TAF AMD
KHYS 250612Z 2506/2606 27022G31KT P6SM BKN011 BKN024 OVC029
     FM250800 15012KT P6SM VCTS OVC003CB
     FM251100 15010KT 3SM BR OVC015
     FM251500 20008KT P6SM BKN200=



000
FTUS43 KDDC 250611 AAB
TAFDDC
TAF AMD
KDDC 250611Z 2506/2606 01016G23KT 3SM -TSRA BR OVC035CB
     FM250700 16013KT 5SM BR OVC025
     FM251500 22011KT P6SM SCT050 BKN100=



000
FTUS43 KDDC 250611 AAB
TAFDDC
TAF AMD
KDDC 250611Z 2506/2606 01016G23KT 3SM -TSRA BR OVC035CB
     FM250700 16013KT 5SM BR OVC025
     FM251500 22011KT P6SM SCT050 BKN100=



000
FTUS43 KDDC 250611 AAB
TAFDDC
TAF AMD
KDDC 250611Z 2506/2606 01016G23KT 3SM -TSRA BR OVC035CB
     FM250700 16013KT 5SM BR OVC025
     FM251500 22011KT P6SM SCT050 BKN100=



000
FTUS43 KDDC 250610 AAA
TAFGCK
TAF AMD
KGCK 250610Z 2506/2606 12010KT P6SM -TSRA BKN070CB BKN090
     FM250700 18010KT P6SM BKN040
     FM251500 18008KT P6SM BKN200=



000
FTUS43 KDDC 250610 AAA
TAFGCK
TAF AMD
KGCK 250610Z 2506/2606 12010KT P6SM -TSRA BKN070CB BKN090
     FM250700 18010KT P6SM BKN040
     FM251500 18008KT P6SM BKN200=



000
FTUS43 KDDC 250542
TAFGCK
TAF
KGCK 250542Z 2506/2606 14014KT P6SM FEW035 BKN100
     FM251000 18010KT P6SM BKN040
     FM251500 18008KT P6SM BKN200=



000
FTUS43 KDDC 250542
TAFGCK
TAF
KGCK 250542Z 2506/2606 14014KT P6SM FEW035 BKN100
     FM251000 18010KT P6SM BKN040
     FM251500 18008KT P6SM BKN200=



000
FTUS43 KDDC 250542
TAFDDC
TAF
KDDC 250542Z 2506/2606 VRB20G30KT 2SM -TSRA BR OVC002CB
     FM250700 16013KT 5SM BR OVC012
     FM251500 22011KT P6SM SCT050 BKN100=



000
FTUS43 KDDC 250542
TAFHYS
TAF
KHYS 250542Z 2506/2606 27022G31KT P6SM BKN011 BKN024 OVC029
     FM250800 15012KT P6SM VCTS OVC003CB
     FM251100 15010KT 3SM BR OVC015
     FM251500 20008KT P6SM BKN200=



000
FTUS43 KDDC 250542
TAFHYS
TAF
KHYS 250542Z 2506/2606 27022G31KT P6SM BKN011 BKN024 OVC029
     FM250800 15012KT P6SM VCTS OVC003CB
     FM251100 15010KT 3SM BR OVC015
     FM251500 20008KT P6SM BKN200=



000
FTUS43 KDDC 250542
TAFDDC
TAF
KDDC 250542Z 2506/2606 VRB20G30KT 2SM -TSRA BR OVC002CB
     FM250700 16013KT 5SM BR OVC012
     FM251500 22011KT P6SM SCT050 BKN100=



000
FTUS43 KDDC 250512 AAA
TAFHYS
TAF AMD
KHYS 250512Z 2505/2524 18006KT 4SM -TSRA OVC011CB
     FM250800 15012KT P6SM VCTS OVC003CB
     FM251100 15010KT 3SM BR OVC015
     FM251500 18008KT P6SM BKN020=



000
FTUS43 KDDC 250512 AAA
TAFHYS
TAF AMD
KHYS 250512Z 2505/2524 18006KT 4SM -TSRA OVC011CB
     FM250800 15012KT P6SM VCTS OVC003CB
     FM251100 15010KT 3SM BR OVC015
     FM251500 18008KT P6SM BKN020=



000
FTUS43 KDDC 250512 AAA
TAFHYS
TAF AMD
KHYS 250512Z 2505/2524 18006KT 4SM -TSRA OVC011CB
     FM250800 15012KT P6SM VCTS OVC003CB
     FM251100 15010KT 3SM BR OVC015
     FM251500 18008KT P6SM BKN020=



000
FTUS43 KDDC 250512 AAA
TAFHYS
TAF AMD
KHYS 250512Z 2505/2524 18006KT 4SM -TSRA OVC011CB
     FM250800 15012KT P6SM VCTS OVC003CB
     FM251100 15010KT 3SM BR OVC015
     FM251500 18008KT P6SM BKN020=



000
FTUS43 KDDC 250440 AAC
TAFGCK
TAF AMD
KGCK 250440Z 2505/2524 35005KT 6SM -TSRA BR SCT060 BKN070CB
     FM250600 16013KT 4SM BR OVC008
     FM251000 18010KT 2SM BR OVC003
     FM251500 18008KT P6SM BKN020=



000
FTUS43 KDDC 250440 AAC
TAFGCK
TAF AMD
KGCK 250440Z 2505/2524 35005KT 6SM -TSRA BR SCT060 BKN070CB
     FM250600 16013KT 4SM BR OVC008
     FM251000 18010KT 2SM BR OVC003
     FM251500 18008KT P6SM BKN020=



000
FTUS43 KDDC 250437 AAE
TAFDDC
TAF AMD
KDDC 250437Z 2505/2524 15016KT 1 1/2SM -TSRA BR OVC002CB
     FM250700 16013KT 4SM BR OVC008
     FM251000 18010KT 2SM BR OVC003
     FM251500 18008KT P6SM BKN020=



000
FTUS43 KDDC 250437 AAE
TAFDDC
TAF AMD
KDDC 250437Z 2505/2524 15016KT 1 1/2SM -TSRA BR OVC002CB
     FM250700 16013KT 4SM BR OVC008
     FM251000 18010KT 2SM BR OVC003
     FM251500 18008KT P6SM BKN020=



000
FTUS43 KDDC 250405 AAD
TAFDDC
TAF AMD
KDDC 250405Z 2504/2524 14011KT 2SM BR OVC003
      TEMPO 2504/2505 4SM BR OVC004
     FM250500 14013KT P6SM VCTS BKN015CB
     FM250700 16013KT 4SM BR OVC008
     FM251000 18010KT 2SM BR OVC003
     FM251500 18008KT P6SM BKN020=



000
FTUS43 KDDC 250405 AAD
TAFDDC
TAF AMD
KDDC 250405Z 2504/2524 14011KT 2SM BR OVC003
      TEMPO 2504/2505 4SM BR OVC004
     FM250500 14013KT P6SM VCTS BKN015CB
     FM250700 16013KT 4SM BR OVC008
     FM251000 18010KT 2SM BR OVC003
     FM251500 18008KT P6SM BKN020=



000
FTUS43 KDDC 250223 CCB
TAFDDC
TAF COR
KDDC 250223Z 2502/2524 16016G21KT 1 1/2SM BR OVC002
      TEMPO 2502/2505 3SM BR OVC004
     FM250500 14013KT P6SM VCTS BKN015CB
     FM250700 16013KT 4SM BR OVC008
     FM251000 18010KT 2SM BR OVC003
     FM251500 18008KT P6SM BKN020=



000
FTUS43 KDDC 250223 CCB
TAFDDC
TAF COR
KDDC 250223Z 2502/2524 16016G21KT 1 1/2SM BR OVC002
      TEMPO 2502/2505 3SM BR OVC004
     FM250500 14013KT P6SM VCTS BKN015CB
     FM250700 16013KT 4SM BR OVC008
     FM251000 18010KT 2SM BR OVC003
     FM251500 18008KT P6SM BKN020=



000
FTUS43 KDDC 250219 AAC
TAFDDC
TAF AMD
KDDC 250219Z 2502/2524 15014KT 3SM BR OVC002
      TEMPO 2502/2505 1 1/2SM BR OVC001
     FM250500 14013KT P6SM VCTS BKN015CB
     FM250700 16013KT 4SM BR OVC008
     FM251000 18010KT 2SM BR OVC003
     FM251500 18008KT P6SM BKN020=



000
FTUS43 KDDC 250211 AAB
TAFGCK
TAF AMD
KGCK 250211Z 2502/2524 14016KT P6SM VCTS OVC013CB
     FM250300 VRB20G35KT P6SM -TSRA OVC012CB
     FM250400 14012KT P6SM OVC014
     FM250600 16013KT 4SM BR OVC008
     FM251000 18010KT 2SM BR OVC003
     FM251500 18008KT P6SM BKN020=



000
FTUS43 KDDC 250211 AAB
TAFGCK
TAF AMD
KGCK 250211Z 2502/2524 14016KT P6SM VCTS OVC013CB
     FM250300 VRB20G35KT P6SM -TSRA OVC012CB
     FM250400 14012KT P6SM OVC014
     FM250600 16013KT 4SM BR OVC008
     FM251000 18010KT 2SM BR OVC003
     FM251500 18008KT P6SM BKN020=



000
FTUS43 KDDC 250206 AAB
TAFDDC
TAF AMD
KDDC 250206Z 2502/2524 14015KT 1 1/2SM BR OVC002
     FM250500 14013KT P6SM VCTS BKN015CB
     FM250700 16013KT 4SM BR OVC008
     FM251000 18010KT 2SM BR OVC003
     FM251500 18008KT P6SM BKN020=



000
FTUS43 KDDC 250206 AAB
TAFDDC
TAF AMD
KDDC 250206Z 2502/2524 14015KT 1 1/2SM BR OVC002
     FM250500 14013KT P6SM VCTS BKN015CB
     FM250700 16013KT 4SM BR OVC008
     FM251000 18010KT 2SM BR OVC003
     FM251500 18008KT P6SM BKN020=



000
FTUS43 KDDC 250126 AAA
TAFGCK
TAF AMD
KGCK 250126Z 2501/2524 14017KT P6SM SCT014 BKN035
     FM250300 14013KT P6SM VCTS SCT008 BKN015CB
     FM250600 16013KT 4SM BR OVC008
     FM251000 18010KT 2SM BR OVC003
     FM251500 18008KT P6SM BKN020=



000
FTUS43 KDDC 250126 AAA
TAFGCK
TAF AMD
KGCK 250126Z 2501/2524 14017KT P6SM SCT014 BKN035
     FM250300 14013KT P6SM VCTS SCT008 BKN015CB
     FM250600 16013KT 4SM BR OVC008
     FM251000 18010KT 2SM BR OVC003
     FM251500 18008KT P6SM BKN020=



000
FTUS43 KDDC 250126 AAA
TAFDDC
TAF AMD
KDDC 250126Z 2501/2524 15014KT 3SM BR OVC004
     FM250500 14013KT P6SM VCTS BKN015CB
     FM250700 16013KT 4SM BR OVC008
     FM251000 18010KT 2SM BR OVC003
     FM251500 18008KT P6SM BKN020=



000
FTUS43 KDDC 242342 CCA
TAFDDC
TAF COR
KDDC 242342Z 2500/2524 14015KT 6SM BR BKN003 OVC008
     FM250130 14015KT 6SM BR SCT003 OVC008
     FM250500 14013KT P6SM VCTS BKN015CB
     FM250700 16013KT 4SM BR OVC008
     FM251000 18010KT 2SM BR OVC003
     FM251500 18008KT P6SM BKN020=



000
FTUS43 KDDC 242342 CCA
TAFGCK
TAF COR
KGCK 242342Z 2500/2524 13016KT P6SM BKN019 BKN027
     FM250300 14013KT P6SM VCTS SCT008 BKN015CB
     FM250600 16013KT 4SM BR OVC008
     FM251000 18010KT 2SM BR OVC003
     FM251500 18008KT P6SM BKN020=



000
FTUS43 KDDC 242342 CCA
TAFDDC
TAF COR
KDDC 242342Z 2500/2524 14015KT 6SM BR BKN003 OVC008
     FM250130 14015KT 6SM BR SCT003 OVC008
     FM250500 14013KT P6SM VCTS BKN015CB
     FM250700 16013KT 4SM BR OVC008
     FM251000 18010KT 2SM BR OVC003
     FM251500 18008KT P6SM BKN020=



000
FTUS43 KDDC 242342 CCA
TAFDDC
TAF COR
KDDC 242342Z 2500/2524 14015KT 6SM BR BKN003 OVC008
     FM250130 14015KT 6SM BR SCT003 OVC008
     FM250500 14013KT P6SM VCTS BKN015CB
     FM250700 16013KT 4SM BR OVC008
     FM251000 18010KT 2SM BR OVC003
     FM251500 18008KT P6SM BKN020=



000
FTUS43 KDDC 242342 CCA
TAFGCK
TAF COR
KGCK 242342Z 2500/2524 13016KT P6SM BKN019 BKN027
     FM250300 14013KT P6SM VCTS SCT008 BKN015CB
     FM250600 16013KT 4SM BR OVC008
     FM251000 18010KT 2SM BR OVC003
     FM251500 18008KT P6SM BKN020=



000
FTUS43 KDDC 242320
TAFGCK
TAF
KGCK 242320Z 2500/2524 13016G20KT P6SM SCT019 BKN025 BKN035
     FM250300 14013KT P6SM VCTS SCT008 BKN025CB
     FM250600 16013KT 4SM BR OVC008
     FM251000 18010KT 2SM BR OVC003
     FM251500 18008KT P6SM BKN020=



000
FTUS43 KDDC 242320
TAFHYS
TAF
KHYS 242320Z 2500/2524 16009KT P6SM OVC060
     FM250400 15010KT 3SM BR OVC015
     FM250800 15012KT P6SM VCTS OVC003CB
     FM251100 15010KT 3SM BR OVC015
     FM251500 18008KT P6SM BKN020=



000
FTUS43 KDDC 242320
TAFDDC
TAF
KDDC 242320Z 2500/2524 14015KT P6SM SCT009 BKN013 BKN021
     FM250500 14013KT P6SM VCTS BKN015CB
     FM250700 16013KT 4SM BR OVC008
     FM251000 18010KT 2SM BR OVC003
     FM251500 18008KT P6SM BKN020=



000
FTUS43 KDDC 242320
TAFGCK
TAF
KGCK 242320Z 2500/2524 13016G20KT P6SM SCT019 BKN025 BKN035
     FM250300 14013KT P6SM VCTS SCT008 BKN025CB
     FM250600 16013KT 4SM BR OVC008
     FM251000 18010KT 2SM BR OVC003
     FM251500 18008KT P6SM BKN020=



000
FTUS43 KDDC 242320
TAFGCK
TAF
KGCK 242320Z 2500/2524 13016G20KT P6SM SCT019 BKN025 BKN035
     FM250300 14013KT P6SM VCTS SCT008 BKN025CB
     FM250600 16013KT 4SM BR OVC008
     FM251000 18010KT 2SM BR OVC003
     FM251500 18008KT P6SM BKN020=



000
FTUS43 KDDC 242320
TAFHYS
TAF
KHYS 242320Z 2500/2524 16009KT P6SM OVC060
     FM250400 15010KT 3SM BR OVC015
     FM250800 15012KT P6SM VCTS OVC003CB
     FM251100 15010KT 3SM BR OVC015
     FM251500 18008KT P6SM BKN020=



000
FTUS43 KDDC 242320
TAFDDC
TAF
KDDC 242320Z 2500/2524 14015KT P6SM SCT009 BKN013 BKN021
     FM250500 14013KT P6SM VCTS BKN015CB
     FM250700 16013KT 4SM BR OVC008
     FM251000 18010KT 2SM BR OVC003
     FM251500 18008KT P6SM BKN020=



000
FTUS43 KDDC 242320
TAFDDC
TAF
KDDC 242320Z 2500/2524 14015KT P6SM SCT009 BKN013 BKN021
     FM250500 14013KT P6SM VCTS BKN015CB
     FM250700 16013KT 4SM BR OVC008
     FM251000 18010KT 2SM BR OVC003
     FM251500 18008KT P6SM BKN020=



000
FTUS43 KDDC 242320
TAFHYS
TAF
KHYS 242320Z 2500/2524 16009KT P6SM OVC060
     FM250400 15010KT 3SM BR OVC015
     FM250800 15012KT P6SM VCTS OVC003CB
     FM251100 15010KT 3SM BR OVC015
     FM251500 18008KT P6SM BKN020=



000
FTUS43 KDDC 242320
TAFGCK
TAF
KGCK 242320Z 2500/2524 13016G20KT P6SM SCT019 BKN025 BKN035
     FM250300 14013KT P6SM VCTS SCT008 BKN025CB
     FM250600 16013KT 4SM BR OVC008
     FM251000 18010KT 2SM BR OVC003
     FM251500 18008KT P6SM BKN020=



000
FTUS43 KDDC 242320
TAFHYS
TAF
KHYS 242320Z 2500/2524 16009KT P6SM OVC060
     FM250400 15010KT 3SM BR OVC015
     FM250800 15012KT P6SM VCTS OVC003CB
     FM251100 15010KT 3SM BR OVC015
     FM251500 18008KT P6SM BKN020=



000
FTUS43 KDDC 242053 AAA
TAFGCK
TAF AMD
KGCK 242053Z 2421/2518 13012KT P6SM OVC019
     FM242200 14013G19KT P6SM BKN030
     FM250200 14013KT P6SM VCTS BKN070CB
     FM250600 16013KT 4SM BR OVC008
     FM251000 18010KT 2SM BR OVC003
     FM251500 18008KT P6SM BKN020=



000
FTUS43 KDDC 242053 AAA
TAFGCK
TAF AMD
KGCK 242053Z 2421/2518 13012KT P6SM OVC019
     FM242200 14013G19KT P6SM BKN030
     FM250200 14013KT P6SM VCTS BKN070CB
     FM250600 16013KT 4SM BR OVC008
     FM251000 18010KT 2SM BR OVC003
     FM251500 18008KT P6SM BKN020=



000
FTUS43 KDDC 242053 AAA
TAFGCK
TAF AMD
KGCK 242053Z 2421/2518 13012KT P6SM OVC019
     FM242200 14013G19KT P6SM BKN030
     FM250200 14013KT P6SM VCTS BKN070CB
     FM250600 16013KT 4SM BR OVC008
     FM251000 18010KT 2SM BR OVC003
     FM251500 18008KT P6SM BKN020=



000
FTUS43 KDDC 242051 AAA
TAFHYS
TAF AMD
KHYS 242051Z 2421/2518 15010KT P6SM OVC025
     FM250400 15010KT 3SM BR OVC008
     FM250700 15009KT 4SM BR OVC003 PROB30 2507/2510 4SM TS BKN003CB
     FM251500 18008KT P6SM BKN020=



000
FTUS43 KDDC 242051 AAA
TAFHYS
TAF AMD
KHYS 242051Z 2421/2518 15010KT P6SM OVC025
     FM250400 15010KT 3SM BR OVC008
     FM250700 15009KT 4SM BR OVC003 PROB30 2507/2510 4SM TS BKN003CB
     FM251500 18008KT P6SM BKN020=



000
FTUS43 KDDC 241738
TAFHYS
TAF
KHYS 241738Z 2418/2518 14011KT P6SM OVC012
     FM242300 14013KT P6SM BKN100
     FM250400 15010KT 3SM BR OVC008
     FM250700 15009KT 4SM BR OVC003 PROB30 2507/2510 4SM TS BKN003CB
     FM251500 18008KT P6SM BKN020=



000
FTUS43 KDDC 241738
TAFDDC
TAF
KDDC 241738Z 2418/2518 13012KT P6SM OVC012
     FM242000 14013G19KT P6SM BKN030
     FM250400 14013KT P6SM VCTS BKN015CB
     FM250700 16013KT 4SM BR OVC008
     FM251000 18010KT 2SM BR OVC003
     FM251500 18008KT P6SM BKN020=



000
FTUS43 KDDC 241738
TAFGCK
TAF
KGCK 241738Z 2418/2518 13012KT P6SM OVC019
     FM242000 14013G19KT P6SM BKN030
     FM250200 14013KT P6SM VCTS BKN070CB
     FM250600 16013KT 4SM BR OVC008
     FM251000 18010KT 2SM BR OVC003
     FM251500 18008KT P6SM BKN020=



000
FTUS43 KDDC 241738
TAFHYS
TAF
KHYS 241738Z 2418/2518 14011KT P6SM OVC012
     FM242300 14013KT P6SM BKN100
     FM250400 15010KT 3SM BR OVC008
     FM250700 15009KT 4SM BR OVC003 PROB30 2507/2510 4SM TS BKN003CB
     FM251500 18008KT P6SM BKN020=



000
FTUS43 KDDC 241738
TAFGCK
TAF
KGCK 241738Z 2418/2518 13012KT P6SM OVC019
     FM242000 14013G19KT P6SM BKN030
     FM250200 14013KT P6SM VCTS BKN070CB
     FM250600 16013KT 4SM BR OVC008
     FM251000 18010KT 2SM BR OVC003
     FM251500 18008KT P6SM BKN020=



000
FTUS43 KDDC 241641 AAC
TAFGCK
TAF AMD
KGCK 241641Z 2417/2512 15014G22KT P6SM BKN015
     FM250100 12010KT P6SM VCTS SCT050CB BKN100
     FM251000 16011KT 4SM BR OVC007
     FM251100 18010KT 2SM BR OVC003=



000
FTUS43 KDDC 241641 AAC
TAFGCK
TAF AMD
KGCK 241641Z 2417/2512 15014G22KT P6SM BKN015
     FM250100 12010KT P6SM VCTS SCT050CB BKN100
     FM251000 16011KT 4SM BR OVC007
     FM251100 18010KT 2SM BR OVC003=



000
FTUS43 KDDC 241640 AAF
TAFHYS
TAF AMD
KHYS 241640Z 2417/2512 14011KT P6SM OVC012
     FM242300 14013KT P6SM BKN100
     FM250500 15007KT 5SM BR OVC004
     FM250700 15009KT 4SM BR OVC003 PROB30 2507/2510 4SM TS
      BKN003CB=



000
FTUS43 KDDC 241640 AAF
TAFHYS
TAF AMD
KHYS 241640Z 2417/2512 14011KT P6SM OVC012
     FM242300 14013KT P6SM BKN100
     FM250500 15007KT 5SM BR OVC004
     FM250700 15009KT 4SM BR OVC003 PROB30 2507/2510 4SM TS
      BKN003CB=



000
FTUS43 KDDC 241640 AAF
TAFHYS
TAF AMD
KHYS 241640Z 2417/2512 14011KT P6SM OVC012
     FM242300 14013KT P6SM BKN100
     FM250500 15007KT 5SM BR OVC004
     FM250700 15009KT 4SM BR OVC003 PROB30 2507/2510 4SM TS
      BKN003CB=



000
FTUS43 KDDC 241455 AAE
TAFHYS
TAF AMD
KHYS 241455Z 2415/2512 14011KT 3SM BR OVC004
     FM241600 14011KT 6SM BR BKN009
     FM241800 14013KT P6SM BKN015
     FM242300 14013KT P6SM BKN100
     FM250500 15007KT 5SM BR OVC004
     FM250700 15009KT 4SM BR OVC003 PROB30 2507/2510 4SM TS
      BKN003CB=



000
FTUS43 KDDC 241455 AAE
TAFHYS
TAF AMD
KHYS 241455Z 2415/2512 14011KT 3SM BR OVC004
     FM241600 14011KT 6SM BR BKN009
     FM241800 14013KT P6SM BKN015
     FM242300 14013KT P6SM BKN100
     FM250500 15007KT 5SM BR OVC004
     FM250700 15009KT 4SM BR OVC003 PROB30 2507/2510 4SM TS
      BKN003CB=



000
FTUS43 KDDC 241357 AAE
TAFDDC
TAF AMD
KDDC 241357Z 2414/2512 13007KT P6SM OVC002
     FM241500 15010KT 4SM BR OVC008
     FM241700 14013G19KT P6SM BKN030
     FM242300 14011KT P6SM BKN100
     FM251000 16011KT 4SM BR OVC008
     FM251100 18010KT 2SM BR OVC003=



000
FTUS43 KDDC 241357 AAE
TAFDDC
TAF AMD
KDDC 241357Z 2414/2512 13007KT P6SM OVC002
     FM241500 15010KT 4SM BR OVC008
     FM241700 14013G19KT P6SM BKN030
     FM242300 14011KT P6SM BKN100
     FM251000 16011KT 4SM BR OVC008
     FM251100 18010KT 2SM BR OVC003=



000
FTUS43 KDDC 241322 AAD
TAFHYS
TAF AMD
KHYS 241322Z 2413/2512 12006KT 1/2SM FG OVC002
     FM241500 14011KT 6SM BR BKN020
     FM242300 12011KT P6SM BKN100
     FM250500 15007KT 5SM BR OVC004
     FM250700 15009KT 4SM BR OVC003 PROB30 2507/2510 4SM TS
      BKN003CB=



000
FTUS43 KDDC 241322 AAD
TAFHYS
TAF AMD
KHYS 241322Z 2413/2512 12006KT 1/2SM FG OVC002
     FM241500 14011KT 6SM BR BKN020
     FM242300 12011KT P6SM BKN100
     FM250500 15007KT 5SM BR OVC004
     FM250700 15009KT 4SM BR OVC003 PROB30 2507/2510 4SM TS
      BKN003CB=



000
FTUS43 KDDC 241322 AAD
TAFHYS
TAF AMD
KHYS 241322Z 2413/2512 12006KT 1/2SM FG OVC002
     FM241500 14011KT 6SM BR BKN020
     FM242300 12011KT P6SM BKN100
     FM250500 15007KT 5SM BR OVC004
     FM250700 15009KT 4SM BR OVC003 PROB30 2507/2510 4SM TS
      BKN003CB=



000
FTUS43 KDDC 241322 AAD
TAFHYS
TAF AMD
KHYS 241322Z 2413/2512 12006KT 1/2SM FG OVC002
     FM241500 14011KT 6SM BR BKN020
     FM242300 12011KT P6SM BKN100
     FM250500 15007KT 5SM BR OVC004
     FM250700 15009KT 4SM BR OVC003 PROB30 2507/2510 4SM TS
      BKN003CB=



000
FTUS43 KDDC 241253 AAB
TAFGCK
TAF AMD
KGCK 241253Z 2413/2512 13007KT P6SM SCT002 OVC015
     FM241430 15010KT P6SM BKN015
     FM242200 12010KT P6SM VCTS SCT050CB BKN100
     FM250200 14012KT 4SM BR OVC015 PROB30 2504/2508 1 1/2SM TS
      BKN003CB
     FM251000 16011KT 4SM BR OVC007
     FM251100 18010KT 2SM BR OVC003=



000
FTUS43 KDDC 241253 AAB
TAFGCK
TAF AMD
KGCK 241253Z 2413/2512 13007KT P6SM SCT002 OVC015
     FM241430 15010KT P6SM BKN015
     FM242200 12010KT P6SM VCTS SCT050CB BKN100
     FM250200 14012KT 4SM BR OVC015 PROB30 2504/2508 1 1/2SM TS
      BKN003CB
     FM251000 16011KT 4SM BR OVC007
     FM251100 18010KT 2SM BR OVC003=



000
FTUS43 KDDC 241217 AAC
TAFHYS
TAF AMD
KHYS 241217Z 2412/2512 12006KT 1/4SM FG OVC002
     FM241500 14011KT 6SM BR BKN020
     FM242300 12011KT P6SM BKN100
     FM250500 15007KT 5SM BR OVC004
     FM250700 15009KT 4SM BR OVC003 PROB30 2507/2510 4SM TS
      BKN003CB=



000
FTUS43 KDDC 241217 AAC
TAFHYS
TAF AMD
KHYS 241217Z 2412/2512 12006KT 1/4SM FG OVC002
     FM241500 14011KT 6SM BR BKN020
     FM242300 12011KT P6SM BKN100
     FM250500 15007KT 5SM BR OVC004
     FM250700 15009KT 4SM BR OVC003 PROB30 2507/2510 4SM TS
      BKN003CB=



000
FTUS43 KDDC 241148 RRA
TAFHYS
TAF
KHYS 241148Z 2412/2512 12006KT 1/4SM FG OVC002
      TEMPO 2412/2415 1/2SM FG OVC002
     FM241500 14011KT P6SM BKN020
     FM242300 12011KT P6SM BKN100
     FM250500 15007KT 5SM BR OVC004
     FM250700 15009KT 4SM BR OVC003 PROB30 2507/2510 4SM TS
      BKN003CB=



000
FTUS43 KDDC 241148 RRA
TAFGCK
TAF
KGCK 241148Z 2412/2512 13007KT 1/4SM FG OVC002
     FM241400 15010KT 3/4SM BR BKN005
     FM241600 15010KT 4SM BR OVC008
     FM242200 12010KT P6SM VCTS SCT050CB BKN100
     FM250200 14012KT 4SM BR OVC015 PROB30 2504/2508 1 1/2SM TS
      BKN003CB
     FM251000 16011KT 4SM BR OVC007
     FM251100 18010KT 2SM BR OVC003=



000
FTUS43 KDDC 241148 RRA
TAFGCK
TAF
KGCK 241148Z 2412/2512 13007KT 1/4SM FG OVC002
     FM241400 15010KT 3/4SM BR BKN005
     FM241600 15010KT 4SM BR OVC008
     FM242200 12010KT P6SM VCTS SCT050CB BKN100
     FM250200 14012KT 4SM BR OVC015 PROB30 2504/2508 1 1/2SM TS
      BKN003CB
     FM251000 16011KT 4SM BR OVC007
     FM251100 18010KT 2SM BR OVC003=



000
FTUS43 KDDC 241148 RRA
TAFHYS
TAF
KHYS 241148Z 2412/2512 12006KT 1/4SM FG OVC002
      TEMPO 2412/2415 1/2SM FG OVC002
     FM241500 14011KT P6SM BKN020
     FM242300 12011KT P6SM BKN100
     FM250500 15007KT 5SM BR OVC004
     FM250700 15009KT 4SM BR OVC003 PROB30 2507/2510 4SM TS
      BKN003CB=



000
FTUS43 KDDC 241148 RRA
TAFGCK
TAF
KGCK 241148Z 2412/2512 13007KT 1/4SM FG OVC002
     FM241400 15010KT 3/4SM BR BKN005
     FM241600 15010KT 4SM BR OVC008
     FM242200 12010KT P6SM VCTS SCT050CB BKN100
     FM250200 14012KT 4SM BR OVC015 PROB30 2504/2508 1 1/2SM TS
      BKN003CB
     FM251000 16011KT 4SM BR OVC007
     FM251100 18010KT 2SM BR OVC003=



000
FTUS43 KDDC 241148 RRA
TAFDDC
TAF
KDDC 241148Z 2412/2512 13007KT 1/4SM FG OVC002
     FM241400 15010KT 3/4SM BR BKN005
     FM241600 15010KT 4SM BR OVC008
     FM242300 14011KT P6SM BKN100
     FM250200 14012KT 4SM BR OVC015 PROB30 2504/2508 1 1/2SM TS
      BKN003CB
     FM251000 16011KT 4SM BR OVC007
     FM251100 18010KT 2SM BR OVC003=



000
FTUS43 KDDC 241148 RRA
TAFHYS
TAF
KHYS 241148Z 2412/2512 12006KT 1/4SM FG OVC002
      TEMPO 2412/2415 1/2SM FG OVC002
     FM241500 14011KT P6SM BKN020
     FM242300 12011KT P6SM BKN100
     FM250500 15007KT 5SM BR OVC004
     FM250700 15009KT 4SM BR OVC003 PROB30 2507/2510 4SM TS
      BKN003CB=



000
FTUS43 KDDC 241148 RRA
TAFDDC
TAF
KDDC 241148Z 2412/2512 13007KT 1/4SM FG OVC002
     FM241400 15010KT 3/4SM BR BKN005
     FM241600 15010KT 4SM BR OVC008
     FM242300 14011KT P6SM BKN100
     FM250200 14012KT 4SM BR OVC015 PROB30 2504/2508 1 1/2SM TS
      BKN003CB
     FM251000 16011KT 4SM BR OVC007
     FM251100 18010KT 2SM BR OVC003=



000
FTUS43 KDDC 241148 RRA
TAFDDC
TAF
KDDC 241148Z 2412/2512 13007KT 1/4SM FG OVC002
     FM241400 15010KT 3/4SM BR BKN005
     FM241600 15010KT 4SM BR OVC008
     FM242300 14011KT P6SM BKN100
     FM250200 14012KT 4SM BR OVC015 PROB30 2504/2508 1 1/2SM TS
      BKN003CB
     FM251000 16011KT 4SM BR OVC007
     FM251100 18010KT 2SM BR OVC003=



000
FTUS43 KDDC 241052 AAA
TAFGCK
TAF AMD
KGCK 241052Z 2411/2506 14004KT 1/2SM FG OVC002
      TEMPO 2411/2414 1/4SM FG OVC002
     FM241500 12012KT P6SM BKN013
     FM242300 12010KT P6SM VCTS SCT050CB BKN100=



000
FTUS43 KDDC 241052 AAA
TAFGCK
TAF AMD
KGCK 241052Z 2411/2506 14004KT 1/2SM FG OVC002
      TEMPO 2411/2414 1/4SM FG OVC002
     FM241500 12012KT P6SM BKN013
     FM242300 12010KT P6SM VCTS SCT050CB BKN100=



000
FTUS43 KDDC 241052 AAA
TAFGCK
TAF AMD
KGCK 241052Z 2411/2506 14004KT 1/2SM FG OVC002
      TEMPO 2411/2414 1/4SM FG OVC002
     FM241500 12012KT P6SM BKN013
     FM242300 12010KT P6SM VCTS SCT050CB BKN100=



000
FTUS43 KDDC 241052 AAA
TAFGCK
TAF AMD
KGCK 241052Z 2411/2506 14004KT 1/2SM FG OVC002
      TEMPO 2411/2414 1/4SM FG OVC002
     FM241500 12012KT P6SM BKN013
     FM242300 12010KT P6SM VCTS SCT050CB BKN100=



000
FTUS43 KDDC 241050 AAC
TAFDDC
TAF AMD
KDDC 241050Z 2411/2506 13007KT 1/2SM FG OVC002
      TEMPO 2411/2414 1/4SM FG OVC002
     FM241500 15013KT P6SM BKN013
     FM242300 14011KT P6SM BKN100=



000
FTUS43 KDDC 241050 AAC
TAFDDC
TAF AMD
KDDC 241050Z 2411/2506 13007KT 1/2SM FG OVC002
      TEMPO 2411/2414 1/4SM FG OVC002
     FM241500 15013KT P6SM BKN013
     FM242300 14011KT P6SM BKN100=



000
FTUS43 KDDC 241050 AAC
TAFDDC
TAF AMD
KDDC 241050Z 2411/2506 13007KT 1/2SM FG OVC002
      TEMPO 2411/2414 1/4SM FG OVC002
     FM241500 15013KT P6SM BKN013
     FM242300 14011KT P6SM BKN100=



000
FTUS43 KDDC 240919 AAB
TAFHYS
TAF AMD
KHYS 240919Z 2409/2506 12006KT 2SM BR OVC003
      TEMPO 2409/2413 1/2SM FG OVC002
     FM241500 14011KT P6SM BKN020
     FM242300 12011KT P6SM BKN100=



000
FTUS43 KDDC 240919 AAB
TAFHYS
TAF AMD
KHYS 240919Z 2409/2506 12006KT 2SM BR OVC003
      TEMPO 2409/2413 1/2SM FG OVC002
     FM241500 14011KT P6SM BKN020
     FM242300 12011KT P6SM BKN100=



000
FTUS43 KDDC 240758 AAA
TAFHYS
TAF AMD
KHYS 240758Z 2408/2506 12006KT P6SM OVC003
      TEMPO 2409/2413 2SM BR OVC004
     FM241500 14011KT P6SM BKN020
     FM242300 12011KT P6SM BKN100=



000
FTUS43 KDDC 240758 AAA
TAFHYS
TAF AMD
KHYS 240758Z 2408/2506 12006KT P6SM OVC003
      TEMPO 2409/2413 2SM BR OVC004
     FM241500 14011KT P6SM BKN020
     FM242300 12011KT P6SM BKN100=



000
FTUS43 KDDC 240758 AAA
TAFHYS
TAF AMD
KHYS 240758Z 2408/2506 12006KT P6SM OVC003
      TEMPO 2409/2413 2SM BR OVC004
     FM241500 14011KT P6SM BKN020
     FM242300 12011KT P6SM BKN100=



000
FTUS43 KDDC 240758 AAA
TAFHYS
TAF AMD
KHYS 240758Z 2408/2506 12006KT P6SM OVC003
      TEMPO 2409/2413 2SM BR OVC004
     FM241500 14011KT P6SM BKN020
     FM242300 12011KT P6SM BKN100=



    US Dept of Commerce
    National Oceanic and Atmospheric Administration
    National Weather Service
    1325 East West Highway
    Silver Spring, MD 20910
    Page Author: NWS Internet Services Team
Disclaimer
Information Quality
Credits
Glossary
Privacy Policy
Freedom of Information Act (FOIA)
About Us
Career Opportunities